Main page
METAR-TAF:

METAR-TAF

Airports :

Meacham, Oregon, United States

latitude: 45-30-41N, longitude: 118-25-29W, elevation: 3723 ft

Current weather observation

The report was made 49 minutes ago, at 02:56 UTC
Calm wind
Temperature 41°F
Humidity 56%
Pressure 30.03 in. Hg
Visibility: 10 miles
Clear sky

METAR: KMEH 230256Z AUTO 00000KT 10SM CLR 05/M03 A3003 RMK AO2 SLP185 T00501033 55001

Time: 20:45 (03:45 UTC)


TAF: missing

Weather observations and forecasts of more than 4000 airports (METAR and TAF reports).

The available stations are represented by yellow and red dots on the map.

Hover mouse over dot to see the name of the station.

Then click to see weather observations and forecasts.

To change the map : click on the green buttons with a black cross to zoom in, on the green button with a dash to zoom out, or on the green arrows for adjacent maps.


METAR-TAF: